Aviation Digital Data Service (ADDS)

Output produced by METARs form (1914 UTC 18 June 2019)
found at http://www.aviationweather.gov/metar/data/
 
KAWO 181856Z AUTO 30006KT 10SM OVC027 17/11 A3024 RMK AO2 SLP242 T01720106
KBLI 181853Z 19007KT 140V230 10SM BKN055 18/11 A3020 RMK AO2 SLP233 T01780111
KBLI 181724Z 1818/1918 18012G18KT P6SM SCT060 
     FM190000 18014G20KT P6SM SCT050 BKN100 
     FM190900 18010KT P6SM BKN050 
     FM191400 17012KT P6SM VCSH BKN035 OVC050
       
KPWT 181856Z AUTO VRB05KT 10SM BKN011 BKN019 OVC047 16/12 RMK AO2 SLPNO T01560122 $
KPWT 181724Z 1818/1918 19006KT 6SM -DZ BR OVC006 
     TEMPO 1818/1821 BKN015 OVC025 
     FM182100 18006KT P6SM SCT022 BKN035 BKN060 
     FM190900 18009KT P6SM OVC015 
     FM191600 18010KT P6SM OVC020
       
KBVS 181855Z AUTO 20010G15KT 9SM CLR 21/12 A3022 RMK A01
KCLS 181855Z AUTO VRB04KT 10SM OVC029 18/11 A3025 RMK AO2
KDEW 181853Z AUTO 10SM CLR 24/08 A3000 RMK AO2 SLP148 T02390083
KELN 181853Z AUTO 32023G31KT 10SM CLR 23/09 A3004 RMK AO2 PK WND 30031/1833 SLP163 T02330089
KEPH 181853Z AUTO 00000KT 10SM CLR 28/02 A2997 RMK AO2 SLP138 T02780022
KPAE 181853Z 36003KT 10SM SCT007 OVC016 14/12 A3025 RMK AO2 SLP242 T01390117
KPAE 181724Z 1818/1918 02006KT P6SM SCT012 OVC027 
     TEMPO 1818/1821 5SM -DZ BR BKN014 OVC022 
     FM182100 01007KT P6SM SCT025 BKN040 
     FM190700 01010KT P6SM BKN012 BKN025 
     FM191600 19009KT P6SM VCSH BKN017 OVC030
       
KFHR 181853Z AUTO 24012G17KT 220V280 10SM CLR 18/11 A3021 RMK AO2 SLP230 T01830106
KHQM 181853Z AUTO 29018G24KT 7SM BKN030 16/10 A3026 RMK AO2 SLP251 T01610100
KHQM 181724Z 1818/1918 29015G22KT P6SM SCT015 BKN025 OVC040 
     FM182300 25014G20KT P6SM SCT030 BKN050 
     FM190400 28010KT P6SM OVC025 
     FM191500 26010KT P6SM VCSH OVC030
       
KKLS 181856Z AUTO 29007G14KT 10SM SCT032 OVC043 18/11 A3026 RMK AO2 SLP252 T01830106
KMWH 181852Z 23014KT 10SM CLR 29/07 A2998 RMK AO2 SLP144 T02890067
KMWH 181740Z 1818/1918 29010KT P6SM FEW250 
     FM181900 25012G20KT P6SM FEW250 
     FM190200 29014G24KT P6SM FEW250 
     FM190800 28013KT P6SM FEW250
       
KOLM 181854Z 26004KT 10SM OVC022 16/10 A3024 RMK AO2 SLP239 T01610100 $
KOLM 181724Z 1818/1918 22008KT P6SM BKN020 BKN035 
     FM182300 24011KT P6SM SCT025 BKN040 
     FM190600 21007KT P6SM BKN035 
     FM191700 22010KT P6SM VCSH BKN027 OVC050
       
KOMK 181853Z AUTO 01008KT 10SM CLR 29/06 A2995 RMK AO2 SLP133 T02890061
KPSC 181853Z 21011KT 10SM CLR 28/11 A3000 RMK AO2 SLP154 T02830106
KPSC 181720Z 1818/1918 24012G20KT P6SM FEW050 FEW250 
     FM182200 28014G24KT P6SM SCT250 
     FM190800 27010KT P6SM FEW250 
     FM191500 24014KT P6SM FEW250
       
KCLM 181853Z AUTO 31011G18KT 10SM FEW036 15/10 A3025 RMK AO2 SLP243 T01500100
KCLM 181724Z 1818/1918 29012KT P6SM SCT015 BKN045 
     FM182300 28014G22KT P6SM SCT050 
     FM191100 28010KT P6SM OVC020
       
K0S9 181855Z AUTO 29010G15KT 240V330 10SM BKN026 OVC033 17/11 A3022 RMK AO2
KPUW 181853Z AUTO 25012G19KT 10SM CLR 22/10 A3007 RMK AO2 SLP170 T02220100
KPUW 181740Z 1818/1918 25012G20KT P6SM FEW060 
     FM190400 25012KT P6SM FEW250 
     FM191300 25016G24KT P6SM FEW250
       
KPLU 181855Z AUTO 00000KT 10SM BKN022 OVC030 18/12 A3024 RMK AO2
KUIL 181853Z AUTO 30008KT 10SM OVC025 14/09 A3028 RMK AO2 SLP252 T01440094
KRNT 181853Z 33006KT 9SM OVC018 17/13 A3023 RMK AO2 SLP242 T01670128
KRLD 181855Z AUTO 18010G19KT 140V220 10SM SCT080 29/11 A2999 RMK AO2 T02940107
KBFI 181853Z VRB03KT 10SM BKN012 OVC026 16/11 A3024 RMK AO2 SLP238 T01610111
KBFI 181724Z 1818/1918 VRB03KT P6SM SCT010 OVC017 
     TEMPO 1818/1820 SCT015 BKN025 
     FM182000 VRB03KT P6SM SCT015 BKN025 
     FM182200 20006KT P6SM SCT025 BKN040 BKN060 
     FM190600 17008KT P6SM OVC040 
     FM191200 18010KT P6SM OVC025
       
KSEA 181853Z 23008KT 1SM R16L/5000VP6000FT -RA BR BKN005 OVC009 15/13 A3024 RMK AO2 DZE49RAB49 SLP246 P0004 T01500133
KSEA 181724Z 1818/1924 VRB06KT 3SM -DZ BR SCT006 OVC012 
     TEMPO 1818/1820 1SM -DZ BR BKN006 OVC010 
     FM182000 24006KT P6SM SCT008 OVC015 
     FM182200 24006KT P6SM SCT015 BKN025 
     FM190000 25006KT P6SM SCT025 BKN035 BKN050 
     FM190600 19012KT P6SM OVC035 
     FM191200 19012KT P6SM OVC022 
     FM191800 22013KT P6SM VCSH BKN025 OVC040
       
KSHN 181903Z AUTO VRB03KT 10SM OVC015 18/12 A3021 RMK AO2 T01780122
KSFF 181853Z 31004G16KT 10SM SCT060 25/08 A2999 RMK AO2 SLP141 T02500078
KSFF 181858Z 1819/1918 27011G19KT P6SM SCT060 
     FM190400 24009KT P6SM FEW070 SCT250 
     FM190900 22011G19KT P6SM FEW250
       
KGEG 181853Z 22009G15KT 10SM SCT060 BKN250 25/08 A3000 RMK AO2 SLP142 T02500078
KGEG 181857Z 1819/1918 23013G18KT P6SM SCT060 
     FM182100 24016G24KT P6SM FEW070 SCT250 
     FM190300 22014G20KT P6SM SCT250
       
K1S5 181855Z AUTO 28008KT 10SM CLR 28/11 A3001 RMK AO2 T02760114
KTIW 181900Z VRB04KT 10SM BR OVC013 14/12 A3025 RMK AO2 T01440122
KVUO 181853Z AUTO 33007KT 10SM FEW034 19/09 A3024 RMK AO2 SLP239 T01890094
KALW 181853Z 18013G18KT 10SM CLR 26/09 A3003 RMK AO2 SLP161 T02560094
KALW 181720Z 1818/1918 22012G20KT P6SM FEW060 FEW250 
     FM182000 22018G28KT P6SM FEW250 
     FM190100 22014G24KT P6SM FEW250 
     FM191500 22018G28KT P6SM FEW250
       
KEAT 181855Z AUTO 30010G16KT 10SM CLR 27/04 A2998 RMK AO2 SLP143 T02670044
KEAT 181740Z 1818/1918 28015G23KT P6SM FEW250 
     FM190100 29024G31KT P6SM FEW250 
     FM190600 30019G26KT P6SM FEW250 
     FM190800 30024KT P6SM FEW250
       
KS52 181855Z AUTO 32013G19KT CLR 26/05 A2999 RMK AO2 PWINO T02590046
KYKM 181853Z 28007KT 220V310 10SM CLR 28/08 A3002 RMK AO2 SLP157 T02780083
KYKM 181720Z 1818/1918 32010KT P6SM SCT250 
     FM182300 32014G24KT P6SM FEW250 
     FM190900 32010KT P6SM SKC